Time;durP1;ratioP1;P1;durP2;ratioP2;P2;SDS_P1;SDS_P2;PMS_P1;PMS_P2;Temp;Humidity;BMP_temperature;BMP_pressure;BME280_temperature;BME280_humidity;BME280_pressure;Samples;Min_cycle;Max_cycle;Signal;HPM_P1;HPM_P2
2022/10/10 04:01:19;;;;;;;14.70;10.70;;;12.30;99.90;;;;;;5549502;23;20497;-64
2022/10/10 04:03:46;;;;;;;12.37;11.27;;;12.30;99.90;;;;;;4985627;28;20941;-64
2022/10/10 04:06:13;;;;;;;11.17;9.80;;;12.30;99.90;;;;;;4985307;28;20485;-64
2022/10/10 04:08:40;;;;;;;11.23;10.33;;;12.30;99.90;;;;;;4978055;28;20973;-63
2022/10/10 04:11:06;;;;;;;11.30;9.87;;;12.30;99.90;;;;;;4978032;28;20827;-64
2022/10/10 04:13:33;;;;;;;10.27;9.27;;;12.30;99.90;;;;;;4977768;28;20455;-63
2022/10/10 04:16:00;;;;;;;10.40;9.50;;;12.20;99.90;;;;;;4978662;28;20458;-63
2022/10/10 04:18:27;;;;;;;11.37;10.27;;;12.30;99.90;;;;;;4978451;28;20486;-64
2022/10/10 04:20:54;;;;;;;12.00;10.90;;;12.30;99.90;;;;;;4978130;28;20509;-63
2022/10/10 04:23:21;;;;;;;11.67;10.43;;;12.30;99.90;;;;;;4977837;28;20847;-64
2022/10/10 04:25:51;;;;;;;10.13;9.27;;;12.30;99.90;;;;;;4978026;28;20505;-63
2022/10/10 04:28:18;;;;;;;11.87;10.63;;;12.30;99.90;;;;;;4977865;28;20455;-63
2022/10/10 04:30:44;;;;;;;11.80;9.60;;;12.30;99.90;;;;;;4977699;28;20474;-63
2022/10/10 04:33:11;;;;;;;10.53;9.63;;;12.30;99.90;;;;;;4977992;28;20482;-63
2022/10/10 04:35:39;;;;;;;11.17;10.07;;;12.30;99.90;;;;;;4977771;28;20545;-62
2022/10/10 04:38:06;;;;;;;10.67;9.77;;;12.30;99.90;;;;;;4978113;28;20474;-63
2022/10/10 04:40:33;;;;;;;13.90;10.03;;;12.30;99.90;;;;;;4977163;28;20822;-63
2022/10/10 04:42:59;;;;;;;12.40;10.10;;;12.30;99.90;;;;;;4977547;28;20459;-63
2022/10/10 04:45:26;;;;;;;10.27;9.33;;;12.30;99.90;;;;;;4977631;28;20521;-63
2022/10/10 04:47:53;;;;;;;11.20;10.13;;;12.40;99.90;;;;;;4977511;28;20454;-63
2022/10/10 04:50:20;;;;;;;10.10;9.10;;;12.30;99.90;;;;;;4980447;28;20521;-63
2022/10/10 04:52:48;;;;;;;12.97;9.40;;;12.30;99.90;;;;;;4984305;28;20474;-63
2022/10/10 04:55:15;;;;;;;10.83;9.70;;;12.30;99.90;;;;;;4986489;28;20454;-64
2022/10/10 04:57:42;;;;;;;10.63;9.63;;;12.30;99.90;;;;;;4991070;28;20449;-63
2022/10/10 05:00:10;;;;;;;10.37;9.37;;;12.30;99.90;;;;;;4984425;28;20462;-64
2022/10/10 05:02:36;;;;;;;9.60;8.80;;;12.30;99.90;;;;;;4977281;28;20853;-63
2022/10/10 05:05:04;;;;;;;10.27;9.20;;;12.30;99.90;;;;;;4977303;28;20462;-63
2022/10/10 05:07:30;;;;;;;10.70;8.93;;;12.30;99.90;;;;;;4976210;28;20803;-64
2022/10/10 05:09:58;;;;;;;10.10;9.17;;;12.30;99.90;;;;;;4977605;28;20459;-65
2022/10/10 05:12:25;;;;;;;10.97;9.60;;;12.30;99.90;;;;;;4976628;28;20981;-64
2022/10/10 05:14:52;;;;;;;11.67;10.67;;;12.30;99.90;;;;;;4977432;28;20470;-65
2022/10/10 05:17:19;;;;;;;12.87;10.13;;;12.30;99.90;;;;;;4978416;28;20459;-64
2022/10/10 05:19:46;;;;;;;12.17;10.77;;;12.30;99.90;;;;;;4977882;28;20473;-68
2022/10/10 05:22:12;;;;;;;14.47;10.37;;;12.30;99.90;;;;;;4977036;28;20565;-66
2022/10/10 05:24:39;;;;;;;12.90;10.50;;;12.30;99.90;;;;;;4977424;28;20462;-67
2022/10/10 05:27:07;;;;;;;14.50;10.60;;;12.30;99.90;;;;;;4977489;28;20517;-67
2022/10/10 05:29:34;;;;;;;10.50;9.67;;;12.30;99.90;;;;;;4976673;28;20462;-66
2022/10/10 05:32:00;;;;;;;12.37;11.20;;;12.40;99.90;;;;;;4976571;28;20482;-66
2022/10/10 05:34:27;;;;;;;10.67;9.60;;;12.40;99.90;;;;;;4976784;28;20513;-66
2022/10/10 05:36:55;;;;;;;11.63;10.30;;;12.30;99.90;;;;;;4977080;28;20458;-66
2022/10/10 05:39:22;;;;;;;10.90;9.80;;;12.30;99.90;;;;;;4976479;28;20450;-66
2022/10/10 05:41:48;;;;;;;11.23;10.13;;;12.30;99.90;;;;;;4976311;28;21032;-66
2022/10/10 05:44:16;;;;;;;10.80;9.80;;;12.30;99.90;;;;;;4976246;28;20959;-66
2022/10/10 05:46:43;;;;;;;10.60;9.80;;;12.30;99.90;;;;;;4976199;28;20942;-66
2022/10/10 05:49:10;;;;;;;10.60;9.70;;;12.40;99.90;;;;;;4976313;28;20522;-66
2022/10/10 05:51:36;;;;;;;9.97;9.00;;;12.30;99.90;;;;;;4976126;28;20509;-66
2022/10/10 05:54:04;;;;;;;10.70;9.60;;;12.40;99.90;;;;;;4976198;28;20509;-65
2022/10/10 05:56:30;;;;;;;12.10;9.70;;;12.40;99.90;;;;;;4976007;28;20501;-67
2022/10/10 05:58:57;;;;;;;10.00;9.20;;;12.30;99.90;;;;;;4976226;28;20965;-66
2022/10/10 06:01:25;;;;;;;12.00;10.70;;;12.30;99.90;;;;;;4975830;28;20483;-66
2022/10/10 06:03:54;;;;;;;16.37;10.70;;;12.30;99.90;;;;;;4987546;28;20482;-67
2022/10/10 06:06:22;;;;;;;10.53;9.53;;;12.30;99.90;;;;;;4982768;28;20541;-66
2022/10/10 06:08:48;;;;;;;10.63;9.63;;;12.30;99.90;;;;;;4976057;28;20972;-66
2022/10/10 06:11:18;;;;;;;10.90;9.90;;;12.40;99.90;;;;;;4975629;28;20475;-67
2022/10/10 06:13:53;;;;;;;11.10;10.10;;;12.40;99.90;;;;;;4976431;28;20481;-66
2022/10/10 06:16:41;;;;;;;10.87;9.97;;;12.40;99.90;;;;;;4975096;28;20459;-67
2022/10/10 06:19:08;;;;;;;11.00;9.90;;;12.50;99.90;;;;;;4993065;28;20898;-64
2022/10/10 06:21:35;;;;;;;12.63;9.87;;;12.50;99.90;;;;;;4993559;28;20474;-64
2022/10/10 06:24:01;;;;;;;12.30;10.60;;;12.60;99.90;;;;;;4993167;28;20474;-64
2022/10/10 06:26:28;;;;;;;11.33;9.37;;;12.80;99.90;;;;;;4992901;28;20451;-64
2022/10/10 06:28:55;;;;;;;10.90;9.90;;;13.00;99.90;;;;;;4987013;28;20454;-64
2022/10/10 06:31:22;;;;;;;11.47;10.37;;;13.10;99.90;;;;;;4975703;28;20974;-64
2022/10/10 06:33:52;;;;;;;11.27;9.30;;;13.30;99.90;;;;;;4976282;28;20514;-64
2022/10/10 06:36:19;;;;;;;12.33;9.23;;;13.50;99.90;;;;;;4975619;28;20565;-64
2022/10/10 06:38:46;;;;;;;10.87;9.10;;;13.80;99.90;;;;;;4976786;28;20518;-64
2022/10/10 06:41:13;;;;;;;8.80;7.97;;;14.30;99.90;;;;;;4983678;28;20466;-64
2022/10/10 06:43:41;;;;;;;10.23;7.97;;;14.90;99.90;;;;;;4983675;28;20926;-63
2022/10/10 06:46:08;;;;;;;7.77;7.00;;;15.50;99.90;;;;;;4982758;28;20470;-63
2022/10/10 06:48:35;;;;;;;7.97;7.17;;;16.20;99.90;;;;;;4978215;28;20462;-63
2022/10/10 06:51:06;;;;;;;8.00;7.30;;;16.60;99.90;;;;;;4975811;28;20482;-63
2022/10/10 06:53:33;;;;;;;7.47;6.77;;;16.70;99.90;;;;;;4975228;28;20871;-64
2022/10/10 06:56:01;;;;;;;9.70;7.60;;;16.80;99.90;;;;;;4975437;28;20852;-63
2022/10/10 06:58:29;;;;;;;10.10;6.77;;;16.80;99.90;;;;;;4975390;28;20459;-63
2022/10/10 07:00:58;;;;;;;9.53;7.53;;;16.70;99.90;;;;;;4974767;28;20486;-63
2022/10/10 07:03:25;;;;;;;11.47;8.90;;;16.50;99.90;;;;;;4982544;28;20454;-63
2022/10/10 07:05:53;;;;;;;13.50;8.60;;;16.30;99.90;;;;;;4983374;28;20455;-63
2022/10/10 07:08:22;;;;;;;11.20;8.27;;;16.10;99.90;;;;;;4976058;28;20817;-63
2022/10/10 07:10:49;;;;;;;9.03;6.80;;;15.90;99.90;;;;;;4975091;28;20525;-64
2022/10/10 07:13:16;;;;;;;9.33;7.30;;;16.10;99.90;;;;;;4974933;28;20607;-64
2022/10/10 07:15:43;;;;;;;7.80;7.10;;;16.50;99.90;;;;;;4975197;28;20458;-64
2022/10/10 07:18:11;;;;;;;10.03;6.87;;;17.20;99.90;;;;;;4975780;28;20454;-64
2022/10/10 07:20:39;;;;;;;14.47;6.53;;;18.00;99.90;;;;;;4975033;28;20502;-64
2022/10/10 07:23:06;;;;;;;8.23;7.20;;;18.70;99.90;;;;;;4974922;28;20474;-63
2022/10/10 07:25:37;;;;;;;11.63;7.97;;;19.00;99.90;;;;;;4975052;28;20458;-63
2022/10/10 07:28:03;;;;;;;7.67;6.97;;;19.10;99.90;;;;;;4974622;28;20443;-63
2022/10/10 07:30:30;;;;;;;7.40;6.70;;;18.90;99.90;;;;;;4976045;28;20475;-64
2022/10/10 07:32:57;;;;;;;7.97;7.17;;;18.60;99.90;;;;;;4978758;28;20474;-64
2022/10/10 07:35:24;;;;;;;7.60;7.00;;;18.20;99.90;;;;;;4978778;28;20450;-65
2022/10/10 07:37:54;;;;;;;10.03;8.07;;;17.90;99.90;;;;;;4978564;28;20867;-65
2022/10/10 07:40:21;;;;;;;10.70;7.87;;;17.60;99.90;;;;;;4978535;28;20535;-65
2022/10/10 07:42:50;;;;;;;8.70;7.40;;;17.50;99.90;;;;;;4977925;28;20789;-63
2022/10/10 07:45:17;;;;;;;8.93;7.57;;;17.40;99.90;;;;;;4979603;28;20509;-64
2022/10/10 07:47:43;;;;;;;7.87;7.27;;;17.20;99.90;;;;;;4984020;28;20459;-64
2022/10/10 07:50:11;;;;;;;8.80;7.77;;;16.90;99.90;;;;;;4985035;28;20462;-64
2022/10/10 07:52:38;;;;;;;10.00;7.80;;;16.70;99.90;;;;;;4988031;28;20533;-64
2022/10/10 07:55:05;;;;;;;9.57;7.73;;;16.60;99.90;;;;;;4980291;28;20450;-64
2022/10/10 07:57:33;;;;;;;11.97;6.90;;;16.70;99.90;;;;;;4978646;28;20540;-64
2022/10/10 08:00:02;;;;;;;8.20;7.40;;;17.20;99.90;;;;;;4978463;28;20442;-64
2022/10/10 08:02:29;;;;;;;11.07;7.20;;;18.10;99.90;;;;;;4978222;28;20574;-64
2022/10/10 08:04:56;;;;;;;7.27;6.00;;;18.90;99.90;;;;;;4978407;28;20484;-63
2022/10/10 08:07:22;;;;;;;7.43;6.73;;;19.10;99.90;;;;;;4978170;28;20459;-64
2022/10/10 08:09:49;;;;;;;9.50;7.93;;;18.90;99.90;;;;;;4978051;28;20509;-64
2022/10/10 08:12:16;;;;;;;8.50;7.20;;;18.70;99.90;;;;;;4977976;28;20478;-64
2022/10/10 08:14:43;;;;;;;9.53;7.93;;;18.60;99.90;;;;;;4977806;28;20459;-64
2022/10/10 08:17:11;;;;;;;9.30;8.37;;;18.50;99.90;;;;;;4977655;28;20954;-65
2022/10/10 08:19:38;;;;;;;9.50;8.00;;;18.20;99.90;;;;;;4977902;28;20518;-64
2022/10/10 08:22:05;;;;;;;9.07;7.50;;;18.10;99.90;;;;;;4977908;28;20479;-64
2022/10/10 08:24:31;;;;;;;9.73;7.50;;;18.10;99.90;;;;;;4986214;28;20458;-63
2022/10/10 08:26:58;;;;;;;9.10;8.20;;;18.10;99.90;;;;;;4991105;28;20454;-64
2022/10/10 08:29:25;;;;;;;11.53;7.67;;;18.20;99.90;;;;;;4978239;28;20860;-65
2022/10/10 08:31:51;;;;;;;12.07;7.70;;;18.20;99.90;;;;;;4977577;28;20478;-64
2022/10/10 08:34:19;;;;;;;10.23;7.50;;;18.60;99.90;;;;;;4977471;28;20478;-64
2022/10/10 08:36:46;;;;;;;10.90;7.73;;;19.30;99.90;;;;;;4977372;28;20871;-64
2022/10/10 08:39:12;;;;;;;6.80;6.20;;;19.80;99.90;;;;;;4977585;28;20458;-64
2022/10/10 08:41:42;;;;;;;7.70;7.00;;;20.00;99.90;;;;;;4976136;28;20536;-64
2022/10/10 08:44:15;;;;;;;9.27;7.73;;;20.00;99.90;;;;;;4977338;28;20946;-64
2022/10/10 08:46:46;;;;;;;8.30;7.40;;;19.90;99.90;;;;;;4977325;28;20451;-63
2022/10/10 08:49:24;;;;;;;11.50;7.53;;;20.20;99.90;;;;;;4977228;28;20921;-64
2022/10/10 08:51:58;;;;;;;8.10;6.70;;;20.60;99.90;;;;;;4977264;28;20484;-64
2022/10/10 08:54:28;;;;;;;8.30;7.60;;;21.30;99.90;;;;;;4977233;28;20472;-64
2022/10/10 08:56:58;;;;;;;7.00;6.30;;;22.30;99.90;;;;;;4976906;28;20969;-64
2022/10/10 08:59:30;;;;;;;6.10;5.60;;;23.40;99.90;;;;;;4977157;28;20847;-65
2022/10/10 09:02:04;;;;;;;11.50;7.00;;;24.10;99.90;;;;;;4976706;28;20486;-64
2022/10/10 09:04:32;;;;;;;10.90;6.83;;;24.20;99.90;;;;;;4977285;28;20470;-65
2022/10/10 09:07:14;;;;;;;6.87;6.17;;;24.10;99.90;;;;;;4976980;28;20494;-65
2022/10/10 09:09:49;;;;;;;6.87;6.27;;;24.00;99.90;;;;;;4976859;28;20471;-65
2022/10/10 09:12:25;;;;;;;11.17;6.63;;;23.70;99.90;;;;;;4976724;28;20478;-65
2022/10/10 09:14:59;;;;;;;8.93;7.17;;;23.60;99.90;;;;;;4976696;28;20489;-65
2022/10/10 09:17:36;;;;;;;8.70;6.87;;;23.30;99.90;;;;;;4976743;28;20443;-65
2022/10/10 09:20:14;;;;;;;7.67;6.30;;;23.20;99.90;;;;;;4976695;28;20439;-65
2022/10/10 09:22:46;;;;;;;7.47;6.30;;;23.90;99.90;;;;;;4976715;28;20443;-64
2022/10/10 09:25:18;;;;;;;9.40;6.57;;;24.50;99.90;;;;;;4977498;28;20447;-65
2022/10/10 09:27:54;;;;;;;8.77;6.37;;;24.70;99.90;;;;;;4976355;28;20462;-65
2022/10/10 09:30:21;;;;;;;6.77;6.13;;;24.80;99.90;;;;;;4977232;28;20438;-65
2022/10/10 09:32:54;;;;;;;8.13;6.50;;;24.50;99.90;;;;;;4976580;28;20534;-65
2022/10/10 09:35:26;;;;;;;9.10;7.23;;;24.50;99.90;;;;;;4976564;28;20533;-64
2022/10/10 09:38:01;;;;;;;11.50;5.60;;;24.10;99.90;;;;;;4977060;28;20466;-64
2022/10/10 09:40:34;;;;;;;8.10;6.77;;;23.80;99.90;;;;;;4976151;28;20439;-64
2022/10/10 09:43:11;;;;;;;6.63;5.97;;;23.30;99.90;;;;;;4976056;28;20906;-65
2022/10/10 09:45:42;;;;;;;6.10;5.57;;;23.10;99.90;;;;;;4976258;28;20449;-64
2022/10/10 09:48:10;;;;;;;5.50;5.00;;;23.20;99.90;;;;;;4975888;28;20914;-65
2022/10/10 09:50:39;;;;;;;7.70;4.90;;;24.30;99.90;;;;;;4975896;28;20475;-65
2022/10/10 09:53:05;;;;;;;6.17;5.57;;;25.00;99.70;;;;;;4975655;28;20482;-65
2022/10/10 09:55:35;;;;;;;6.20;5.47;;;25.60;98.70;;;;;;4975971;28;20458;-65
2022/10/10 09:58:11;;;;;;;6.60;5.63;;;25.90;97.30;;;;;;4975943;28;20513;-66
2022/10/10 10:00:38;;;;;;;6.63;5.07;;;26.10;95.90;;;;;;4975691;28;20490;-65
2022/10/10 10:03:14;;;;;;;5.43;4.93;;;26.10;96.60;;;;;;4976093;28;20466;-65
2022/10/10 10:05:45;;;;;;;6.00;4.70;;;25.90;96.20;;;;;;4976016;28;20469;-65
2022/10/10 10:08:21;;;;;;;5.60;5.10;;;25.80;96.10;;;;;;4975657;28;20915;-64
2022/10/10 10:10:48;;;;;;;6.73;5.00;;;25.60;96.30;;;;;;4975390;28;20895;-65
2022/10/10 10:13:21;;;;;;;7.57;5.80;;;25.40;96.70;;;;;;4975761;28;20475;-65
2022/10/10 10:15:50;;;;;;;6.63;6.10;;;25.00;97.60;;;;;;4975562;28;20590;-64
2022/10/10 10:18:24;;;;;;;7.60;5.50;;;24.70;98.60;;;;;;4975485;28;20863;-65
2022/10/10 10:20:55;;;;;;;6.30;5.70;;;24.50;99.10;;;;;;4975613;28;20948;-65
2022/10/10 10:23:27;;;;;;;7.83;5.83;;;24.20;99.10;;;;;;4975694;28;20804;-65
2022/10/10 10:25:59;;;;;;;14.33;5.80;;;24.00;99.90;;;;;;4975521;28;20459;-65
2022/10/10 10:28:26;;;;;;;10.83;5.30;;;23.80;99.90;;;;;;4975443;28;20459;-65
2022/10/10 10:30:54;;;;;;;6.80;6.20;;;23.50;99.90;;;;;;4984308;28;20474;-65
2022/10/10 10:33:43;;;;;;;11.07;6.30;;;23.10;99.90;;;;;;4985341;28;20479;-65
2022/10/10 10:36:23;;;;;;;8.80;6.57;;;22.90;99.90;;;;;;4982300;28;20485;-65
2022/10/10 10:38:54;;;;;;;7.27;6.60;;;22.90;99.90;;;;;;4980380;28;20439;-65
2022/10/10 10:41:27;;;;;;;7.50;6.33;;;22.90;99.90;;;;;;4975494;28;20474;-64
2022/10/10 10:44:24;;;;;;;7.73;6.37;;;22.70;99.90;;;;;;4975211;28;20466;-65
2022/10/10 10:46:59;;;;;;;9.00;7.10;;;22.70;99.90;;;;;;4960753;28;20450;-65
2022/10/10 10:49:33;;;;;;;7.37;6.50;;;22.60;99.90;;;;;;4974791;28;20906;-64
2022/10/10 10:52:24;;;;;;;10.53;6.47;;;22.70;99.90;;;;;;4975118;28;20474;-64
2022/10/10 10:55:08;;;;;;;11.07;6.07;;;22.40;99.90;;;;;;4975062;28;20515;-65
2022/10/10 10:57:44;;;;;;;6.50;5.90;;;22.20;99.90;;;;;;4974824;28;20977;-65
2022/10/10 11:00:14;;;;;;;9.87;5.93;;;22.10;99.90;;;;;;4975180;28;20790;-66
2022/10/10 11:02:48;;;;;;;7.67;6.63;;;22.10;99.90;;;;;;4975796;28;20781;-66
2022/10/10 11:05:35;;;;;;;7.07;5.20;;;22.20;99.90;;;;;;4975380;28;20922;-65
2022/10/10 11:08:34;;;;;;;10.33;5.87;;;22.50;99.90;;;;;;4979114;28;20441;-65
2022/10/10 11:11:13;;;;;;;8.40;5.83;;;23.00;99.90;;;;;;4971101;28;20474;-64
2022/10/10 11:13:46;;;;;;;5.23;4.73;;;23.40;99.90;;;;;;4979028;28;20498;-64
2022/10/10 11:16:20;;;;;;;7.30;5.57;;;23.80;99.90;;;;;;4978879;28;20973;-65
2022/10/10 11:19:01;;;;;;;7.10;6.40;;;24.10;99.90;;;;;;4979032;28;20438;-65
2022/10/10 11:21:32;;;;;;;5.33;4.60;;;24.20;99.90;;;;;;4978708;28;20568;-65
2022/10/10 11:24:05;;;;;;;12.33;5.33;;;24.30;99.90;;;;;;4979058;28;20439;-65
2022/10/10 11:26:36;;;;;;;7.60;3.70;;;24.30;99.90;;;;;;4979327;28;20530;-65
2022/10/10 11:29:08;;;;;;;7.43;3.80;;;24.40;99.90;;;;;;4979551;28;20443;-65
2022/10/10 11:31:42;;;;;;;7.27;3.60;;;24.50;99.90;;;;;;4978615;28;20536;-64
2022/10/10 11:34:16;;;;;;;4.03;3.73;;;24.70;99.90;;;;;;4978424;28;20466;-65
2022/10/10 11:36:45;;;;;;;7.77;4.33;;;24.90;99.90;;;;;;4978371;28;20856;-65
2022/10/10 11:39:18;;;;;;;5.37;3.20;;;25.20;99.90;;;;;;4978525;28;20454;-64
2022/10/10 11:41:49;;;;;;;4.73;3.10;;;25.20;99.90;;;;;;4978680;28;20489;-65
2022/10/10 11:44:21;;;;;;;3.67;3.47;;;25.30;99.90;;;;;;4978617;28;20559;-65
2022/10/10 11:46:54;;;;;;;5.73;3.53;;;25.30;99.90;;;;;;4978490;28;20438;-65
2022/10/10 11:49:28;;;;;;;7.07;4.13;;;25.40;99.60;;;;;;4979050;28;20442;-65
2022/10/10 11:52:12;;;;;;;6.93;3.30;;;25.50;99.90;;;;;;4977987;28;20847;-66
2022/10/10 11:54:45;;;;;;;3.87;3.30;;;25.70;99.90;;;;;;4978380;28;20467;-66
2022/10/10 11:57:17;;;;;;;6.10;3.33;;;25.70;99.90;;;;;;4982068;28;20446;-66
2022/10/10 11:59:49;;;;;;;5.97;3.77;;;25.80;99.90;;;;;;4979415;28;21082;-65
2022/10/10 12:02:19;;;;;;;6.20;3.30;;;25.90;98.20;;;;;;4978819;28;20997;-65
2022/10/10 12:04:46;;;;;;;9.07;3.70;;;25.90;97.90;;;;;;4978830;28;20451;-65
2022/10/10 12:07:19;;;;;;;6.70;3.80;;;25.90;99.00;;;;;;4982509;28;20477;-65
2022/10/10 12:09:52;;;;;;;5.77;3.50;;;25.90;98.40;;;;;;4996271;28;20415;-65
2022/10/10 12:12:23;;;;;;;9.73;4.10;;;26.00;97.80;;;;;;4996676;28;20477;-65
2022/10/10 12:14:54;;;;;;;5.20;3.20;;;25.90;97.60;;;;;;4996891;28;20458;-65
2022/10/10 12:17:25;;;;;;;7.40;3.77;;;26.00;98.30;;;;;;4985583;28;20478;-66
2022/10/10 12:19:53;;;;;;;5.53;3.07;;;26.00;99.40;;;;;;4993474;28;20441;-64
2022/10/10 12:22:27;;;;;;;4.97;3.10;;;26.10;97.90;;;;;;4983027;28;20475;-65
2022/10/10 12:25:21;;;;;;;7.13;3.70;;;26.00;97.80;;;;;;4978178;28;20440;-65
2022/10/10 12:28:04;;;;;;;5.70;3.33;;;26.10;97.00;;;;;;4977983;28;20506;-65
2022/10/10 12:30:31;;;;;;;7.80;3.30;;;26.00;96.90;;;;;;4977747;28;20466;-64
2022/10/10 12:32:58;;;;;;;6.57;3.53;;;25.90;97.90;;;;;;4977562;28;20454;-65
2022/10/10 12:35:31;;;;;;;4.10;3.30;;;25.80;96.20;;;;;;4977223;28;20898;-65
2022/10/10 12:38:17;;;;;;;6.10;3.37;;;25.60;96.30;;;;;;4977734;28;20435;-65
2022/10/10 12:41:15;;;;;;;8.23;3.33;;;25.30;96.10;;;;;;4977067;28;20475;-65
2022/10/10 12:43:51;;;;;;;4.60;3.20;;;25.20;96.40;;;;;;4969095;28;20458;-65
2022/10/10 12:46:30;;;;;;;5.70;3.97;;;25.00;99.80;;;;;;4977109;28;20906;-65
2022/10/10 12:49:03;;;;;;;8.17;4.07;;;24.90;97.20;;;;;;4979902;28;20462;-65
2022/10/10 12:51:34;;;;;;;5.80;4.40;;;24.80;97.30;;;;;;4979224;28;20485;-66
2022/10/10 12:54:04;;;;;;;8.50;3.43;;;24.80;98.60;;;;;;4980187;28;20439;-65
2022/10/10 12:56:44;;;;;;;4.20;2.90;;;24.90;98.00;;;;;;4977566;28;20443;-65
2022/10/10 12:59:20;;;;;;;5.60;3.30;;;25.00;97.20;;;;;;4978566;28;20438;-65
2022/10/10 13:01:52;;;;;;;7.80;3.60;;;25.20;96.50;;;;;;4978942;28;21020;-65
2022/10/10 13:04:19;;;;;;;7.40;3.90;;;25.20;96.70;;;;;;4978546;28;20482;-65
2022/10/10 13:06:48;;;;;;;9.03;3.13;;;25.40;97.40;;;;;;4978788;28;20465;-64
2022/10/10 13:09:19;;;;;;;6.07;3.60;;;25.50;96.40;;;;;;4980655;28;20454;-65
2022/10/10 13:11:56;;;;;;;5.97;3.63;;;25.60;97.20;;;;;;4979391;28;21040;-65
2022/10/10 13:14:24;;;;;;;8.03;3.53;;;25.60;98.20;;;;;;4980458;28;20474;-66
2022/10/10 13:16:51;;;;;;;12.10;2.97;;;25.70;97.50;;;;;;4981134;28;20486;-65
2022/10/10 13:19:20;;;;;;;7.60;3.07;;;25.70;97.60;;;;;;4979726;28;20465;-66
2022/10/10 13:21:49;;;;;;;11.20;3.53;;;25.70;95.70;;;;;;4979225;28;20506;-65
2022/10/10 13:24:18;;;;;;;5.73;2.90;;;25.90;94.50;;;;;;4979709;28;20450;-65
2022/10/10 13:26:48;;;;;;;4.33;3.00;;;26.00;94.40;;;;;;4978634;28;20465;-66
2022/10/10 13:29:29;;;;;;;5.50;3.00;;;26.00;94.80;;;;;;4977732;28;20455;-65
2022/10/10 13:31:59;;;;;;;5.80;3.47;;;25.90;95.40;;;;;;4978047;28;20581;-65
2022/10/10 13:34:29;;;;;;;11.60;3.83;;;25.90;94.90;;;;;;4979036;28;20506;-65
2022/10/10 13:36:57;;;;;;;7.17;3.20;;;26.00;93.70;;;;;;4978018;28;20532;-65
2022/10/10 13:39:25;;;;;;;8.33;3.27;;;26.00;93.70;;;;;;4976673;28;20451;-65
2022/10/10 13:41:53;;;;;;;9.27;3.33;;;26.00;92.70;;;;;;4975915;28;20978;-66
2022/10/10 13:44:23;;;;;;;8.47;3.37;;;26.00;92.80;;;;;;4976254;28;20454;-65
2022/10/10 13:46:51;;;;;;;13.77;3.70;;;25.90;92.40;;;;;;4976117;28;20459;-65
2022/10/10 13:49:22;;;;;;;5.30;3.30;;;25.80;93.10;;;;;;4975901;28;20521;-65
2022/10/10 13:51:59;;;;;;;7.00;3.30;;;25.80;91.90;;;;;;4976090;28;20530;-64
2022/10/10 13:54:50;;;;;;;9.90;4.00;;;25.70;91.70;;;;;;4975910;28;20462;-65
2022/10/10 13:57:20;;;;;;;11.93;3.60;;;25.60;94.00;;;;;;4965648;28;20973;-65
2022/10/10 13:59:58;;;;;;;7.53;3.83;;;25.70;93.00;;;;;;4975577;28;20911;-64
2022/10/10 14:02:30;;;;;;;6.23;3.47;;;25.60;94.40;;;;;;4975429;28;20990;-64
2022/10/10 14:04:58;;;;;;;8.00;3.30;;;25.70;93.50;;;;;;4975727;28;20435;-65
2022/10/10 14:07:27;;;;;;;9.50;4.27;;;25.60;93.10;;;;;;4975804;28;20549;-65
2022/10/10 14:09:57;;;;;;;5.20;3.37;;;25.50;93.90;;;;;;4975719;28;20451;-65
2022/10/10 14:12:27;;;;;;;9.13;3.43;;;25.40;94.80;;;;;;4975643;28;20470;-65
2022/10/10 14:14:56;;;;;;;12.80;3.63;;;25.40;92.50;;;;;;4975534;28;20482;-65
2022/10/10 14:17:23;;;;;;;10.00;3.20;;;25.40;91.60;;;;;;4975230;28;21065;-65
2022/10/10 14:19:52;;;;;;;9.87;4.53;;;25.30;91.80;;;;;;4975538;28;20482;-65
2022/10/10 14:22:20;;;;;;;11.37;4.23;;;25.20;93.30;;;;;;4975304;28;20479;-65
2022/10/10 14:24:47;;;;;;;6.97;4.10;;;25.00;94.90;;;;;;4975334;28;20458;-65
2022/10/10 14:27:21;;;;;;;11.80;4.23;;;24.80;95.90;;;;;;4976937;28;20513;-65
2022/10/10 14:29:47;;;;;;;11.97;3.40;;;24.70;95.40;;;;;;4992999;28;20463;-66
2022/10/10 14:32:15;;;;;;;8.40;3.87;;;24.50;94.20;;;;;;4993817;28;20474;-66
2022/10/10 14:34:43;;;;;;;9.57;3.77;;;24.40;94.40;;;;;;4995134;28;20475;-65
2022/10/10 14:37:18;;;;;;;10.23;3.60;;;24.30;95.30;;;;;;4995402;28;20459;-65
2022/10/10 14:39:46;;;;;;;10.40;4.10;;;24.20;94.50;;;;;;4982709;28;20561;-65
2022/10/10 14:42:14;;;;;;;15.07;3.70;;;24.10;94.10;;;;;;4975371;28;20990;-66
2022/10/10 14:44:40;;;;;;;6.90;3.70;;;24.00;94.70;;;;;;4975325;28;20818;-65
2022/10/10 14:47:09;;;;;;;10.40;4.40;;;23.90;94.20;;;;;;4975270;28;20458;-65
2022/10/10 14:49:36;;;;;;;8.07;3.93;;;23.90;94.90;;;;;;4975304;28;20451;-65
2022/10/10 14:52:03;;;;;;;14.50;4.10;;;23.90;95.20;;;;;;4975211;28;20478;-65
2022/10/10 14:54:31;;;;;;;8.93;3.77;;;23.90;96.10;;;;;;4975012;28;20870;-65
2022/10/10 14:56:58;;;;;;;8.43;3.50;;;23.80;94.90;;;;;;4975066;28;20493;-65
2022/10/10 14:59:25;;;;;;;7.13;3.73;;;23.80;95.20;;;;;;4975400;28;20454;-66
2022/10/10 15:01:51;;;;;;;9.57;4.20;;;23.60;95.50;;;;;;4975065;28;20490;-66
2022/10/10 15:04:18;;;;;;;15.67;3.97;;;23.60;95.60;;;;;;4975988;28;20471;-65
2022/10/10 15:06:45;;;;;;;10.30;4.00;;;23.50;96.80;;;;;;4975220;28;20478;-65
2022/10/10 15:09:12;;;;;;;10.50;3.40;;;23.40;98.30;;;;;;4978386;28;20456;-65
2022/10/10 15:11:40;;;;;;;15.17;4.57;;;23.40;97.50;;;;;;4984966;28;20521;-66
2022/10/10 15:14:07;;;;;;;9.20;3.90;;;23.30;97.80;;;;;;4979254;28;20462;-66
2022/10/10 15:16:34;;;;;;;8.77;4.23;;;23.20;98.60;;;;;;4980631;28;20533;-66
2022/10/10 15:19:00;;;;;;;7.10;3.67;;;23.10;97.80;;;;;;4975341;28;20455;-66
2022/10/10 15:21:27;;;;;;;10.10;3.90;;;23.10;98.20;;;;;;4975145;28;20478;-65
2022/10/10 15:23:54;;;;;;;10.80;3.30;;;23.00;97.70;;;;;;4974624;28;20459;-65
2022/10/10 15:26:21;;;;;;;8.70;3.30;;;23.00;97.30;;;;;;4974902;28;20447;-65
2022/10/10 15:28:49;;;;;;;11.23;3.40;;;22.80;97.20;;;;;;4974751;28;20461;-65
2022/10/10 15:31:16;;;;;;;8.83;3.33;;;22.80;98.50;;;;;;4974500;28;20478;-66
2022/10/10 15:33:42;;;;;;;12.80;3.67;;;22.70;99.10;;;;;;4974613;28;20859;-65
2022/10/10 15:36:09;;;;;;;6.53;3.57;;;22.70;99.50;;;;;;4975026;28;20479;-66
2022/10/10 15:38:36;;;;;;;9.60;3.30;;;22.60;99.90;;;;;;4974234;28;20485;-66
2022/10/10 15:41:05;;;;;;;8.37;4.13;;;22.50;99.80;;;;;;4974536;28;20478;-65
2022/10/10 15:43:42;;;;;;;8.83;4.17;;;22.50;99.90;;;;;;4974606;28;20483;-66
2022/10/10 15:46:10;;;;;;;9.63;3.93;;;22.40;99.90;;;;;;4974605;28;20434;-66
2022/10/10 15:48:37;;;;;;;9.03;4.07;;;22.40;99.90;;;;;;4974337;28;20462;-66
2022/10/10 15:51:05;;;;;;;13.40;3.37;;;22.40;99.90;;;;;;4974935;28;20876;-65
2022/10/10 15:53:32;;;;;;;10.03;4.13;;;22.40;99.90;;;;;;4978863;28;20575;-66
2022/10/10 15:55:59;;;;;;;8.67;3.73;;;22.40;99.90;;;;;;4978926;28;20544;-66
2022/10/10 15:58:25;;;;;;;9.87;3.60;;;22.40;99.90;;;;;;4979574;28;20482;-65
2022/10/10 16:00:52;;;;;;;13.83;3.77;;;22.40;99.90;;;;;;4979580;28;20482;-66
2022/10/10 16:03:20;;;;;;;9.10;3.60;;;22.40;99.90;;;;;;4977981;28;20517;-66
2022/10/10 16:05:46;;;;;;;11.43;3.53;;;22.40;99.90;;;;;;4978223;28;20533;-66
2022/10/10 16:08:13;;;;;;;11.83;4.17;;;22.40;99.90;;;;;;4977528;28;20869;-65
2022/10/10 16:10:41;;;;;;;8.77;4.00;;;22.30;99.90;;;;;;4977865;28;20533;-66
2022/10/10 16:13:09;;;;;;;6.10;3.70;;;22.20;99.90;;;;;;4978231;28;20477;-65
2022/10/10 16:15:36;;;;;;;7.73;3.70;;;22.10;99.90;;;;;;4977756;28;20482;-66
2022/10/10 16:18:03;;;;;;;6.97;3.90;;;22.00;99.90;;;;;;4977775;28;20455;-66
2022/10/10 16:20:31;;;;;;;11.73;3.83;;;21.80;99.90;;;;;;4977598;28;20504;-65
2022/10/10 16:22:57;;;;;;;9.03;5.30;;;21.70;99.90;;;;;;4977684;28;20454;-64
2022/10/10 16:25:24;;;;;;;10.50;4.50;;;21.60;99.90;;;;;;4977577;28;20509;-66
2022/10/10 16:27:51;;;;;;;10.70;4.37;;;21.50;99.90;;;;;;4977635;28;20454;-65
2022/10/10 16:30:19;;;;;;;14.80;4.10;;;21.40;99.90;;;;;;4977435;28;20481;-66
2022/10/10 16:32:45;;;;;;;13.70;4.03;;;21.30;99.90;;;;;;4977141;28;20957;-66
2022/10/10 16:35:12;;;;;;;12.27;4.27;;;21.20;99.90;;;;;;4977360;28;20510;-65
2022/10/10 16:37:40;;;;;;;11.47;3.67;;;21.10;99.90;;;;;;4977483;28;20459;-64
2022/10/10 16:40:07;;;;;;;14.17;4.60;;;21.00;99.90;;;;;;4977678;28;20458;-66
2022/10/10 16:42:34;;;;;;;8.10;4.43;;;20.90;99.90;;;;;;4977169;28;20474;-65
2022/10/10 16:45:01;;;;;;;18.73;5.20;;;20.80;99.90;;;;;;4977637;28;20517;-65
2022/10/10 16:47:28;;;;;;;9.47;4.40;;;20.70;99.90;;;;;;4977214;28;20938;-65
2022/10/10 16:49:55;;;;;;;6.23;3.60;;;20.70;99.90;;;;;;4977191;28;20517;-66
2022/10/10 16:52:21;;;;;;;9.73;4.37;;;20.60;99.90;;;;;;4977689;28;20820;-66
2022/10/10 16:54:49;;;;;;;9.20;4.00;;;20.60;99.90;;;;;;4976748;28;20914;-66